createdAt,value
2022-08-07T00:02:45.421Z,0.20
2022-08-07T00:07:41.209Z,0.10
2022-08-07T00:12:33.227Z,0.20
2022-08-07T00:17:25.228Z,0.20
2022-08-07T00:22:24.559Z,0.20
2022-08-07T00:27:27.413Z,0.28
2022-08-07T00:32:38.862Z,0.30
2022-08-07T00:37:48.119Z,0.30
2022-08-07T00:42:41.438Z,0.35
2022-08-07T00:48:18.418Z,0.30
2022-08-07T00:52:47.227Z,0.35
2022-08-07T00:57:44.423Z,0.28
2022-08-07T01:02:47.834Z,0.30
2022-08-07T01:07:40.700Z,0.30
2022-08-07T01:12:32.681Z,0.25
2022-08-07T01:17:25.070Z,0.10
2022-08-07T01:22:22.725Z,0.17
2022-08-07T01:27:20.929Z,0.30
2022-08-07T01:32:13.424Z,0.20
2022-08-07T01:37:05.586Z,0.20
2022-08-07T01:42:37.161Z,0.20
2022-08-07T01:48:16.492Z,0.10
2022-08-07T01:52:28.297Z,0.20
2022-08-07T01:57:27.107Z,0.10
2022-08-07T02:03:11.306Z,0.20
2022-08-07T02:07:50.650Z,0.10
2022-08-07T02:12:50.254Z,0.20
2022-08-07T02:17:49.450Z,0.10
2022-08-07T02:22:43.619Z,0.10
2022-08-07T02:27:41.154Z,0.10
2022-08-07T02:32:39.372Z,0.10
2022-08-07T02:37:50.097Z,0.10
2022-08-07T02:42:42.953Z,0.20
2022-08-07T02:47:45.053Z,0.20
2022-08-07T02:52:48.920Z,0.20
2022-08-07T02:57:42.352Z,0.20
2022-08-07T03:02:52.006Z,0.20
2022-08-07T03:08:08.189Z,0.30
2022-08-07T03:13:00.440Z,0.10
2022-08-07T03:17:53.691Z,0.20
2022-08-07T03:22:50.178Z,0.22
2022-08-07T03:28:09.099Z,0.20
2022-08-07T03:32:59.198Z,0.20
2022-08-07T03:37:56.463Z,0.20
2022-08-07T03:42:49.297Z,0.20
2022-08-07T03:47:47.699Z,0.20
2022-08-07T03:52:45.049Z,0.25
2022-08-07T03:59:07.273Z,0.30
2022-08-07T04:03:04.660Z,0.40
2022-08-07T04:07:57.150Z,0.20
2022-08-07T04:12:56.650Z,0.30
2022-08-07T04:18:58.298Z,0.25
2022-08-07T04:23:08.666Z,0.30
2022-08-07T04:28:18.710Z,0.30
2022-08-07T04:33:15.715Z,0.20
2022-08-07T04:38:15.664Z,0.20
2022-08-07T04:43:07.448Z,0.25
2022-08-07T04:48:17.059Z,0.20
2022-08-07T04:54:01.866Z,0.63
2022-08-07T04:59:18.429Z,0.20
2022-08-07T05:04:28.658Z,0.30
2022-08-07T05:09:37.806Z,0.55
2022-08-07T05:14:55.931Z,0.20
2022-08-07T05:20:00.652Z,0.20
2022-08-07T05:24:55.540Z,0.25
2022-08-07T05:29:56.666Z,0.20
2022-08-07T05:34:49.804Z,0.20
2022-08-07T05:40:05.603Z,0.22
2022-08-07T05:45:25.909Z,0.30
2022-08-07T05:50:25.660Z,0.40
2022-08-07T05:55:19.440Z,0.25
2022-08-07T06:00:19.653Z,0.30
2022-08-07T06:05:15.386Z,0.20
2022-08-07T06:10:16.673Z,0.20
2022-08-07T06:15:15.262Z,0.20
2022-08-07T06:20:25.416Z,0.20
2022-08-07T06:25:36.089Z,0.20
2022-08-07T06:30:35.454Z,0.20
2022-08-07T06:35:45.921Z,0.20
2022-08-07T06:41:02.708Z,0.30
2022-08-07T06:46:00.801Z,0.30
2022-08-07T06:51:08.190Z,0.25
2022-08-07T06:56:15.535Z,0.20
2022-08-07T07:01:16.739Z,0.28
2022-08-07T07:06:11.267Z,0.38
2022-08-07T07:11:13.885Z,0.20
2022-08-07T07:16:38.902Z,0.35
2022-08-07T07:22:05.220Z,0.38
2022-08-07T07:27:09.667Z,0.50
2022-08-07T07:32:05.832Z,0.40
2022-08-07T07:37:21.720Z,0.70
2022-08-07T07:42:40.764Z,0.30
2022-08-07T07:47:51.751Z,0.70
2022-08-07T07:52:51.665Z,0.40
2022-08-07T07:57:53.714Z,0.20
2022-08-07T08:03:05.704Z,0.38
2022-08-07T08:08:04.685Z,0.38
2022-08-07T08:12:59.718Z,0.30
2022-08-07T08:18:18.123Z,0.22
2022-08-07T08:23:36.814Z,0.30
2022-08-07T08:28:37.689Z,0.30
2022-08-07T08:33:41.775Z,0.30
2022-08-07T08:39:03.029Z,0.40
2022-08-07T08:44:29.177Z,0.40
2022-08-07T08:49:57.187Z,0.30
2022-08-07T08:55:07.536Z,0.30
2022-08-07T09:00:03.988Z,0.40
2022-08-07T09:05:37.761Z,0.30
2022-08-07T09:10:48.871Z,0.47
2022-08-07T09:16:23.812Z,0.43
2022-08-07T09:22:22.887Z,0.40
2022-08-07T09:27:13.606Z,0.40
2022-08-07T09:32:26.753Z,0.30
2022-08-07T09:37:48.118Z,0.35
2022-08-07T09:43:40.172Z,0.32
2022-08-07T09:50:00.450Z,0.40
2022-08-07T09:54:29.830Z,0.30
2022-08-07T10:00:00.645Z,0.30
2022-08-07T10:05:29.744Z,0.40
2022-08-07T10:11:17.159Z,0.30
2022-08-07T10:16:36.157Z,0.40
2022-08-07T10:22:14.757Z,0.28
2022-08-07T10:27:24.714Z,0.40
2022-08-07T10:32:53.286Z,0.22
2022-08-07T10:38:36.018Z,0.28
2022-08-07T10:44:07.604Z,0.30
2022-08-07T10:49:45.293Z,0.28
2022-08-07T10:55:01.304Z,0.30
2022-08-07T11:00:36.849Z,0.40
2022-08-07T11:05:48.721Z,0.38
2022-08-07T11:11:09.876Z,0.30
2022-08-07T11:16:16.764Z,0.50
2022-08-07T11:21:23.821Z,0.30
2022-08-07T11:26:50.005Z,0.30
2022-08-07T11:32:03.806Z,0.40
2022-08-07T11:37:19.890Z,0.30
2022-08-07T11:43:04.788Z,0.30
2022-08-07T11:48:33.759Z,0.55
2022-08-07T11:54:01.424Z,0.50
2022-08-07T11:58:53.615Z,0.43
2022-08-07T12:04:25.751Z,0.90
2022-08-07T12:09:41.854Z,0.80
2022-08-07T12:14:55.556Z,0.30
2022-08-07T12:20:20.955Z,0.30
2022-08-07T12:26:05.837Z,0.20
2022-08-07T12:32:01.719Z,0.40
2022-08-07T12:42:31.767Z,0.22
2022-08-07T12:47:44.765Z,0.40
2022-08-07T12:58:00.527Z,0.30
2022-08-07T13:03:51.309Z,0.32
2022-08-07T13:09:12.566Z,0.30
2022-08-07T13:14:51.207Z,0.30
2022-08-07T13:20:09.777Z,0.30
2022-08-07T13:25:06.840Z,0.30
2022-08-07T13:30:18.942Z,0.40
2022-08-07T13:36:00.448Z,0.30
2022-08-07T13:41:14.888Z,0.30
2022-08-07T13:46:22.757Z,0.30
2022-08-07T13:51:28.534Z,0.30
2022-08-07T13:56:52.055Z,0.28
2022-08-07T14:02:11.068Z,0.20
2022-08-07T14:07:10.117Z,0.20
2022-08-07T14:12:13.736Z,0.30
2022-08-07T14:17:13.104Z,0.30
2022-08-07T14:22:35.079Z,0.28
2022-08-07T14:28:12.905Z,0.28
2022-08-07T14:33:12.950Z,0.30
2022-08-07T14:38:30.792Z,0.35
2022-08-07T14:49:17.481Z,0.30
2022-08-07T14:54:33.093Z,0.30
2022-08-07T15:04:54.938Z,0.40
2022-08-07T15:09:58.478Z,0.30
2022-08-07T15:20:55.087Z,0.30
2022-08-07T15:26:02.812Z,0.30
2022-08-07T15:37:02.385Z,0.30
2022-08-07T15:48:00.025Z,0.82
2022-08-07T15:52:43.809Z,0.30
2022-08-07T15:58:00.361Z,0.52
2022-08-07T16:03:03.979Z,0.50
2022-08-07T16:08:30.847Z,0.40
2022-08-07T16:13:58.916Z,0.40
2022-08-07T16:19:09.891Z,0.40
2022-08-07T16:24:09.107Z,0.20
2022-08-07T16:30:09.639Z,0.20
2022-08-07T16:35:52.109Z,0.30
2022-08-07T16:41:16.036Z,0.20
2022-08-07T16:52:51.494Z,0.20
2022-08-07T16:58:02.868Z,0.30
2022-08-07T17:03:07.895Z,0.20
2022-08-07T17:08:02.011Z,0.30
2022-08-07T17:13:08.584Z,0.38
2022-08-07T17:18:51.971Z,0.20
2022-08-07T17:24:11.426Z,0.30
2022-08-07T17:30:14.217Z,0.35
2022-08-07T17:35:33.055Z,1.10
2022-08-07T17:40:40.939Z,0.45
2022-08-07T17:45:51.849Z,0.50
2022-08-07T17:51:06.840Z,0.70
2022-08-07T17:56:29.071Z,0.30
2022-08-07T18:01:50.864Z,0.43
2022-08-07T18:07:19.956Z,0.40
2022-08-07T18:12:30.478Z,1.40
2022-08-07T18:18:47.399Z,0.30
2022-08-07T18:28:34.533Z,0.20
2022-08-07T18:33:56.110Z,0.30
2022-08-07T18:40:07.125Z,0.20
2022-08-07T18:45:40.101Z,0.28
2022-08-07T18:50:53.878Z,0.30
2022-08-07T18:56:31.648Z,0.30
2022-08-07T19:02:19.030Z,0.30
2022-08-07T19:07:20.850Z,0.30
2022-08-07T19:12:58.238Z,0.20
2022-08-07T19:18:17.911Z,0.40
2022-08-07T19:23:58.811Z,0.22
2022-08-07T19:30:57.665Z,0.20
2022-08-07T19:34:32.733Z,0.30
2022-08-07T19:39:57.989Z,0.20
2022-08-07T19:45:09.436Z,0.30
2022-08-07T19:50:43.828Z,0.20
2022-08-07T19:55:46.779Z,0.30
2022-08-07T20:00:55.365Z,0.30
2022-08-07T20:06:02.322Z,0.25
2022-08-07T20:11:03.670Z,0.30
2022-08-07T20:16:04.861Z,0.22
2022-08-07T20:20:59.261Z,1.08
2022-08-07T20:25:58.862Z,0.30
2022-08-07T20:30:50.858Z,0.57
2022-08-07T20:36:02.922Z,0.32
2022-08-07T20:41:15.023Z,0.30
2022-08-07T20:46:24.855Z,0.30
2022-08-07T20:51:35.712Z,0.40
2022-08-07T20:56:33.494Z,0.30
2022-08-07T21:01:45.289Z,0.30
2022-08-07T21:06:55.281Z,0.25
2022-08-07T21:11:52.978Z,0.38
2022-08-07T21:18:01.928Z,0.40
2022-08-07T21:22:21.869Z,0.20
2022-08-07T21:27:46.993Z,0.50
2022-08-07T21:33:01.886Z,0.30
2022-08-07T21:38:10.885Z,0.30
2022-08-07T21:43:23.981Z,0.50
2022-08-07T21:48:55.797Z,0.40
2022-08-07T21:53:52.955Z,0.50
2022-08-07T21:59:07.888Z,0.40
2022-08-07T22:04:05.919Z,0.50
2022-08-07T22:09:18.882Z,0.65
2022-08-07T22:14:15.186Z,0.50
2022-08-07T22:19:30.894Z,0.50
2022-08-07T22:29:48.340Z,0.60
2022-08-07T22:34:58.878Z,0.70
2022-08-07T22:40:10.152Z,0.80
2022-08-07T22:45:10.790Z,0.60
2022-08-07T22:50:33.613Z,0.80
2022-08-07T22:55:43.874Z,0.70
2022-08-07T23:01:17.890Z,0.70
2022-08-07T23:06:52.071Z,0.85
2022-08-07T23:12:21.065Z,1.15
2022-08-07T23:17:45.120Z,1.20
2022-08-07T23:22:36.807Z,1.00
2022-08-07T23:28:22.948Z,0.98
2022-08-07T23:38:46.017Z,1.33
2022-08-07T23:44:38.885Z,1.58
2022-08-07T23:50:16.477Z,1.75
2022-08-07T23:55:52.270Z,1.38
